AXY7PW ESGG-EDDH
Flight info
| Callsign | AXY7PW |
|---|---|
| Flight time | 1h 10m |
| Altitude | 34000 |
| Route | VADIN DCT ALASA M852 EKERN T905 BOGMU |
| Aircraft | B737/M-SDE1FGHILORVWXY/HB1 |
Departure
| Time | 2026-04-30 18:35 |
|---|---|
| Airport | Göteborg Landvetter Airport (ESGG) |
Arrival
| Time | 2026-04-30 19:45 |
|---|---|
| Airport | Hamburg Helmut Schmidt Airport (EDDH) |
| Time | Latitude | Longitude | Altitude | Speed | Heading |
|---|---|---|---|---|---|
| 2026-04-30 17:52 | 57.66425 | 12.29033 | 518 ft | 0 kts | 116° |
| 2026-04-30 18:22 | 57.66426 | 12.29026 | 518 ft | 3 kts | 115° |
| 2026-04-30 18:22 | 57.66435 | 12.28979 | 518 ft | 4 kts | 98° |
| 2026-04-30 18:23 | 57.66434 | 12.28932 | 518 ft | 4 kts | 66° |
| 2026-04-30 18:23 | 57.66418 | 12.28896 | 518 ft | 4 kts | 30° |
| 2026-04-30 18:23 | 57.66393 | 12.28878 | 518 ft | 4 kts | 10° |
| 2026-04-30 18:23 | 57.66367 | 12.28873 | 518 ft | 4 kts | 1° |
| 2026-04-30 18:24 | 57.66313 | 12.28875 | 518 ft | 4 kts | 1° |
| 2026-04-30 18:24 | 57.66290 | 12.28866 | 518 ft | 4 kts | 45° |
| 2026-04-30 18:24 | 57.66289 | 12.28850 | 518 ft | 4 kts | 121° |
| 2026-04-30 18:25 | 57.66306 | 12.28816 | 518 ft | 4 kts | 153° |
| 2026-04-30 18:25 | 57.66357 | 12.28815 | 518 ft | 4 kts | 200° |
| 2026-04-30 18:25 | 57.66381 | 12.28836 | 518 ft | 4 kts | 211° |
| 2026-04-30 18:26 | 57.66413 | 12.28901 | 518 ft | 4 kts | 284° |
| 2026-04-30 18:26 | 57.66425 | 12.28907 | 518 ft | 4 kts | 15° |
| 2026-04-30 18:26 | 57.66428 | 12.28910 | 518 ft | 0 kts | 26° |
| 2026-04-30 18:29 | 57.66435 | 12.28916 | 518 ft | 3 kts | 26° |
| 2026-04-30 18:30 | 57.66490 | 12.28966 | 518 ft | 8 kts | 24° |
| 2026-04-30 18:30 | 57.66577 | 12.28974 | 518 ft | 8 kts | 21° |
| 2026-04-30 18:31 | 57.66616 | 12.28930 | 518 ft | 8 kts | 294° |
| 2026-04-30 18:31 | 57.66733 | 12.28903 | 518 ft | 12 kts | 25° |
| 2026-04-30 18:32 | 57.66921 | 12.29074 | 518 ft | 18 kts | 26° |
| 2026-04-30 18:32 | 57.67041 | 12.29185 | 518 ft | 20 kts | 26° |
| 2026-04-30 18:32 | 57.67276 | 12.29396 | 518 ft | 18 kts | 26° |
| 2026-04-30 18:33 | 57.67363 | 12.29475 | 518 ft | 11 kts | 19° |
| 2026-04-30 18:33 | 57.67459 | 12.29231 | 518 ft | 15 kts | 269° |
| 2026-04-30 18:33 | 57.67451 | 12.29083 | 518 ft | 10 kts | 240° |
| 2026-04-30 18:34 | 57.67410 | 12.29006 | 518 ft | 9 kts | 207° |
| 2026-04-30 18:34 | 57.67207 | 12.28822 | 517 ft | 46 kts | 206° |
| 2026-04-30 18:34 | 57.66721 | 12.28379 | 515 ft | 109 kts | 206° |
| 2026-04-30 18:35 | 57.65894 | 12.27562 | 519 ft | 157 kts | 208° |
| 2026-04-30 18:35 | 57.64826 | 12.26671 | 822 ft | 175 kts | 206° |
| 2026-04-30 18:35 | 57.63725 | 12.25694 | 1557 ft | 174 kts | 210° |
| 2026-04-30 18:36 | 57.61430 | 12.23529 | 2929 ft | 194 kts | 209° |
| 2026-04-30 18:36 | 57.60188 | 12.22366 | 3686 ft | 206 kts | 210° |
| 2026-04-30 18:36 | 57.57232 | 12.21090 | 5051 ft | 240 kts | 177° |
| 2026-04-30 18:37 | 57.55500 | 12.21430 | 5828 ft | 250 kts | 173° |
| 2026-04-30 18:37 | 57.53764 | 12.21704 | 6625 ft | 262 kts | 181° |
| 2026-04-30 18:37 | 57.51882 | 12.21535 | 7194 ft | 280 kts | 185° |
| 2026-04-30 18:37 | 57.49902 | 12.21049 | 7833 ft | 291 kts | 198° |
| 2026-04-30 18:38 | 57.48157 | 12.19241 | 8802 ft | 289 kts | 223° |
| 2026-04-30 18:38 | 57.46674 | 12.16664 | 9630 ft | 295 kts | 223° |
| 2026-04-30 18:38 | 57.45131 | 12.14112 | 10517 ft | 299 kts | 223° |
| 2026-04-30 18:38 | 57.43529 | 12.11503 | 11072 ft | 316 kts | 222° |
| 2026-04-30 18:39 | 57.41839 | 12.08786 | 11482 ft | 335 kts | 221° |
| 2026-04-30 18:39 | 57.40032 | 12.05904 | 12034 ft | 349 kts | 221° |
| 2026-04-30 18:39 | 57.38170 | 12.02937 | 12787 ft | 355 kts | 221° |
| 2026-04-30 18:39 | 57.36287 | 11.99937 | 13663 ft | 360 kts | 221° |
| 2026-04-30 18:40 | 57.34373 | 11.96893 | 14483 ft | 365 kts | 221° |
| 2026-04-30 18:40 | 57.32436 | 11.93813 | 15286 ft | 369 kts | 221° |
| 2026-04-30 18:40 | 57.31143 | 11.91760 | 15827 ft | 372 kts | 221° |
| 2026-04-30 18:40 | 57.29166 | 11.88626 | 16615 ft | 377 kts | 221° |
| 2026-04-30 18:41 | 57.26484 | 11.84382 | 17653 ft | 383 kts | 222° |
| 2026-04-30 18:41 | 57.25138 | 11.82255 | 18158 ft | 386 kts | 222° |
| 2026-04-30 18:41 | 57.22418 | 11.77965 | 19088 ft | 391 kts | 222° |
| 2026-04-30 18:41 | 57.20338 | 11.74689 | 19733 ft | 395 kts | 222° |
| 2026-04-30 18:42 | 57.18238 | 11.71386 | 20380 ft | 399 kts | 222° |
| 2026-04-30 18:42 | 57.14690 | 11.65843 | 21425 ft | 406 kts | 220° |
| 2026-04-30 18:42 | 57.12271 | 11.63108 | 22050 ft | 412 kts | 206° |
| 2026-04-30 18:45 | 56.84720 | 11.42035 | 27279 ft | 445 kts | 204° |
| 2026-04-30 18:45 | 56.81852 | 11.39863 | 27744 ft | 448 kts | 204° |
| 2026-04-30 18:45 | 56.78964 | 11.37682 | 28197 ft | 451 kts | 204° |
| 2026-04-30 18:46 | 56.76058 | 11.35489 | 28634 ft | 453 kts | 204° |
| 2026-04-30 18:46 | 56.73133 | 11.33287 | 29072 ft | 456 kts | 204° |
| 2026-04-30 18:46 | 56.70190 | 11.31074 | 29503 ft | 459 kts | 204° |
| 2026-04-30 18:46 | 56.67229 | 11.28851 | 29934 ft | 462 kts | 204° |
| 2026-04-30 18:47 | 56.64289 | 11.26649 | 30344 ft | 464 kts | 204° |
| 2026-04-30 18:47 | 56.61292 | 11.24407 | 30710 ft | 467 kts | 204° |
| 2026-04-30 18:47 | 56.58279 | 11.22157 | 31063 ft | 469 kts | 204° |
| 2026-04-30 18:47 | 56.55252 | 11.19901 | 31429 ft | 471 kts | 204° |
| 2026-04-30 18:48 | 56.52213 | 11.17640 | 31782 ft | 473 kts | 204° |
| 2026-04-30 18:48 | 56.49160 | 11.15372 | 32135 ft | 475 kts | 204° |
| 2026-04-30 18:48 | 56.46094 | 11.13099 | 32490 ft | 477 kts | 203° |
| 2026-04-30 18:48 | 56.43025 | 11.10827 | 32893 ft | 478 kts | 203° |
| 2026-04-30 18:49 | 56.39954 | 11.08559 | 33389 ft | 476 kts | 204° |
| 2026-04-30 18:49 | 56.36893 | 11.06302 | 33881 ft | 474 kts | 204° |
| 2026-04-30 18:49 | 56.33840 | 11.04055 | 34341 ft | 474 kts | 203° |
| 2026-04-30 18:49 | 56.30824 | 11.01837 | 34469 ft | 474 kts | 203° |
| 2026-04-30 18:50 | 56.27780 | 10.99604 | 34451 ft | 471 kts | 203° |
| 2026-04-30 18:50 | 56.21714 | 10.95165 | 34443 ft | 470 kts | 203° |
| 2026-04-30 18:51 | 56.15646 | 10.90739 | 34444 ft | 471 kts | 203° |
| 2026-04-30 18:51 | 56.09576 | 10.86327 | 34446 ft | 471 kts | 203° |
| 2026-04-30 18:52 | 56.03504 | 10.81929 | 34438 ft | 471 kts | 203° |
| 2026-04-30 18:52 | 55.97437 | 10.77548 | 34441 ft | 471 kts | 203° |
| 2026-04-30 18:53 | 55.91400 | 10.73205 | 34438 ft | 471 kts | 203° |
| 2026-04-30 18:53 | 55.85321 | 10.68845 | 34438 ft | 471 kts | 203° |
| 2026-04-30 18:54 | 55.79239 | 10.64499 | 34438 ft | 471 kts | 203° |
| 2026-04-30 18:54 | 55.73159 | 10.60168 | 34435 ft | 471 kts | 203° |
| 2026-04-30 18:55 | 55.67078 | 10.55852 | 34431 ft | 471 kts | 203° |
| 2026-04-30 18:55 | 55.58002 | 10.49435 | 34428 ft | 470 kts | 203° |
| 2026-04-30 18:56 | 55.48879 | 10.43019 | 34427 ft | 470 kts | 202° |
| 2026-04-30 18:57 | 55.39749 | 10.36629 | 34451 ft | 470 kts | 202° |
| 2026-04-30 18:57 | 55.33710 | 10.32421 | 34448 ft | 471 kts | 202° |
| 2026-04-30 18:58 | 55.27628 | 10.28195 | 34123 ft | 466 kts | 202° |
| 2026-04-30 18:58 | 55.24612 | 10.26104 | 33281 ft | 467 kts | 202° |
| 2026-04-30 18:58 | 55.21577 | 10.24004 | 32377 ft | 470 kts | 202° |
| 2026-04-30 18:59 | 55.15478 | 10.19795 | 30798 ft | 472 kts | 203° |
| 2026-04-30 19:00 | 55.06410 | 10.13564 | 28731 ft | 462 kts | 202° |
| 2026-04-30 19:00 | 55.03428 | 10.11522 | 28115 ft | 459 kts | 202° |
| 2026-04-30 19:00 | 54.97531 | 10.07492 | 26860 ft | 452 kts | 202° |
| 2026-04-30 19:01 | 54.91699 | 10.03519 | 25634 ft | 448 kts | 201° |
| 2026-04-30 19:01 | 54.88803 | 10.01550 | 25020 ft | 446 kts | 201° |
| 2026-04-30 19:02 | 54.83037 | 9.97640 | 23756 ft | 444 kts | 201° |
| 2026-04-30 19:02 | 54.77201 | 9.94982 | 23434 ft | 437 kts | 190° |
| 2026-04-30 19:03 | 54.71215 | 9.93016 | 23437 ft | 438 kts | 190° |
| 2026-04-30 19:03 | 54.65222 | 9.91069 | 23450 ft | 438 kts | 189° |
| 2026-04-30 19:04 | 54.59229 | 9.89148 | 23421 ft | 438 kts | 189° |
| 2026-04-30 19:04 | 54.53229 | 9.87337 | 23445 ft | 437 kts | 183° |
| 2026-04-30 19:05 | 54.47389 | 9.89279 | 23467 ft | 423 kts | 154° |
| 2026-04-30 19:05 | 54.42272 | 9.93239 | 23478 ft | 393 kts | 153° |
| 2026-04-30 19:06 | 54.37363 | 9.97175 | 22639 ft | 386 kts | 152° |
| 2026-04-30 19:06 | 54.34950 | 9.99128 | 22224 ft | 383 kts | 152° |
| 2026-04-30 19:06 | 54.30169 | 10.03000 | 21404 ft | 377 kts | 152° |
| 2026-04-30 19:07 | 54.25457 | 10.06809 | 20601 ft | 372 kts | 152° |
| 2026-04-30 19:07 | 54.23125 | 10.08690 | 20211 ft | 369 kts | 152° |
| 2026-04-30 19:08 | 54.18509 | 10.12407 | 19443 ft | 364 kts | 152° |
| 2026-04-30 19:08 | 54.13990 | 10.16038 | 18754 ft | 358 kts | 152° |
| 2026-04-30 19:08 | 54.11758 | 10.17828 | 18535 ft | 350 kts | 151° |
| 2026-04-30 19:09 | 54.07468 | 10.21262 | 18202 ft | 331 kts | 151° |
| 2026-04-30 19:09 | 54.05412 | 10.22905 | 18052 ft | 322 kts | 151° |
| 2026-04-30 19:09 | 54.03412 | 10.24501 | 17914 ft | 313 kts | 151° |
| 2026-04-30 19:10 | 53.99585 | 10.27553 | 17639 ft | 295 kts | 150° |
| 2026-04-30 19:10 | 53.95780 | 10.29474 | 17308 ft | 287 kts | 179° |
| 2026-04-30 19:11 | 53.93810 | 10.28813 | 16937 ft | 292 kts | 200° |
| 2026-04-30 19:11 | 53.90795 | 10.24415 | 16277 ft | 294 kts | 241° |
| 2026-04-30 19:11 | 53.90044 | 10.21170 | 15925 ft | 292 kts | 262° |
| 2026-04-30 19:12 | 53.90210 | 10.17890 | 15612 ft | 282 kts | 296° |
| 2026-04-30 19:12 | 53.91345 | 10.15312 | 15243 ft | 270 kts | 330° |
| 2026-04-30 19:12 | 53.93046 | 10.14289 | 14879 ft | 257 kts | 5° |
| 2026-04-30 19:13 | 53.96479 | 10.15572 | 14158 ft | 254 kts | 19° |
| 2026-04-30 19:13 | 53.99875 | 10.17144 | 13518 ft | 251 kts | 19° |
| 2026-04-30 19:13 | 54.01555 | 10.17928 | 13201 ft | 250 kts | 19° |
| 2026-04-30 19:14 | 54.03229 | 10.18722 | 12889 ft | 249 kts | 20° |
| 2026-04-30 19:14 | 54.04748 | 10.19938 | 12564 ft | 242 kts | 44° |
| 2026-04-30 19:14 | 54.05792 | 10.22127 | 12255 ft | 239 kts | 55° |
| 2026-04-30 19:14 | 54.06811 | 10.24372 | 11921 ft | 239 kts | 53° |
| 2026-04-30 19:15 | 54.07846 | 10.26587 | 11619 ft | 239 kts | 52° |
| 2026-04-30 19:15 | 54.09901 | 10.30996 | 11426 ft | 237 kts | 62° |
| 2026-04-30 19:15 | 54.10396 | 10.33637 | 11439 ft | 236 kts | 85° |
| 2026-04-30 19:16 | 54.10195 | 10.36416 | 11440 ft | 239 kts | 108° |
| 2026-04-30 19:16 | 54.09339 | 10.38845 | 11440 ft | 244 kts | 130° |
| 2026-04-30 19:16 | 54.06245 | 10.41212 | 11444 ft | 257 kts | 176° |
| 2026-04-30 19:17 | 54.04496 | 10.40715 | 11446 ft | 263 kts | 199° |
| 2026-04-30 19:17 | 54.01704 | 10.36685 | 11458 ft | 269 kts | 228° |
| 2026-04-30 19:17 | 54.00496 | 10.34245 | 11453 ft | 270 kts | 229° |
| 2026-04-30 19:18 | 53.98538 | 10.30117 | 11439 ft | 270 kts | 230° |
| 2026-04-30 19:18 | 53.97174 | 10.26569 | 11420 ft | 269 kts | 253° |
| 2026-04-30 19:18 | 53.97030 | 10.23451 | 11426 ft | 266 kts | 283° |
| 2026-04-30 19:19 | 53.97770 | 10.20633 | 11430 ft | 261 kts | 313° |
| 2026-04-30 19:19 | 53.99157 | 10.18749 | 11433 ft | 254 kts | 340° |
| 2026-04-30 19:19 | 54.02503 | 10.18670 | 11443 ft | 242 kts | 27° |
| 2026-04-30 19:20 | 54.03881 | 10.20183 | 11441 ft | 239 kts | 45° |
| 2026-04-30 19:20 | 54.05051 | 10.22197 | 11454 ft | 240 kts | 48° |
| 2026-04-30 19:20 | 54.07303 | 10.26375 | 11443 ft | 239 kts | 50° |
| 2026-04-30 19:21 | 54.08406 | 10.28500 | 11449 ft | 239 kts | 50° |
| 2026-04-30 19:21 | 54.10138 | 10.33206 | 11432 ft | 236 kts | 81° |
| 2026-04-30 19:22 | 54.09331 | 10.38516 | 11435 ft | 243 kts | 127° |
| 2026-04-30 19:22 | 54.04584 | 10.40761 | 11445 ft | 262 kts | 197° |
| 2026-04-30 19:23 | 54.00558 | 10.34379 | 11442 ft | 269 kts | 229° |
| 2026-04-30 19:24 | 53.98445 | 10.29190 | 10932 ft | 267 kts | 243° |
| 2026-04-30 19:24 | 53.97644 | 10.26347 | 10637 ft | 267 kts | 244° |
| 2026-04-30 19:24 | 53.96066 | 10.20672 | 9943 ft | 270 kts | 244° |
| 2026-04-30 19:25 | 53.93581 | 10.11687 | 8522 ft | 286 kts | 244° |
| 2026-04-30 19:26 | 53.91921 | 10.05635 | 7921 ft | 283 kts | 244° |
| 2026-04-30 19:26 | 53.90271 | 9.99593 | 7316 ft | 281 kts | 244° |
| 2026-04-30 19:26 | 53.89454 | 9.96589 | 7033 ft | 280 kts | 244° |
| 2026-04-30 19:27 | 53.87854 | 9.90687 | 6432 ft | 277 kts | 244° |
| 2026-04-30 19:27 | 53.86255 | 9.84792 | 5868 ft | 273 kts | 244° |
| 2026-04-30 19:28 | 53.85464 | 9.81878 | 5596 ft | 271 kts | 244° |
| 2026-04-30 19:28 | 53.83898 | 9.76112 | 5027 ft | 267 kts | 244° |
| 2026-04-30 19:29 | 53.81955 | 9.71010 | 4474 ft | 257 kts | 208° |
| 2026-04-30 19:29 | 53.80313 | 9.69900 | 4165 ft | 254 kts | 194° |
| 2026-04-30 19:30 | 53.75238 | 9.67467 | 4000 ft | 253 kts | 194° |
| 2026-04-30 19:30 | 53.71847 | 9.65853 | 3995 ft | 253 kts | 194° |
| 2026-04-30 19:31 | 53.68457 | 9.64240 | 3993 ft | 253 kts | 194° |
| 2026-04-30 19:31 | 53.66786 | 9.63445 | 3998 ft | 253 kts | 194° |
| 2026-04-30 19:31 | 53.63404 | 9.61834 | 3993 ft | 252 kts | 194° |
| 2026-04-30 19:32 | 53.61715 | 9.61027 | 3993 ft | 252 kts | 194° |
| 2026-04-30 19:32 | 53.60026 | 9.60224 | 3994 ft | 252 kts | 194° |
| 2026-04-30 19:32 | 53.58336 | 9.59420 | 3992 ft | 252 kts | 194° |
| 2026-04-30 19:32 | 53.56646 | 9.58616 | 3992 ft | 252 kts | 194° |
| 2026-04-30 19:33 | 53.54957 | 9.57813 | 3995 ft | 252 kts | 194° |
| 2026-04-30 19:33 | 53.53291 | 9.57020 | 3995 ft | 252 kts | 194° |
| 2026-04-30 19:33 | 53.51599 | 9.56128 | 3980 ft | 253 kts | 204° |
| 2026-04-30 19:33 | 53.50339 | 9.54234 | 3996 ft | 244 kts | 235° |
| 2026-04-30 19:34 | 53.49490 | 9.51814 | 4000 ft | 239 kts | 239° |
| 2026-04-30 19:34 | 53.48678 | 9.49393 | 4000 ft | 238 kts | 239° |
| 2026-04-30 19:34 | 53.47058 | 9.44552 | 3991 ft | 238 kts | 239° |
| 2026-04-30 19:35 | 53.46251 | 9.42133 | 3990 ft | 237 kts | 239° |
| 2026-04-30 19:35 | 53.45443 | 9.39716 | 3990 ft | 238 kts | 239° |
| 2026-04-30 19:35 | 53.44635 | 9.37298 | 3989 ft | 238 kts | 239° |
| 2026-04-30 19:35 | 53.43753 | 9.34970 | 3966 ft | 235 kts | 222° |
| 2026-04-30 19:36 | 53.42358 | 9.33785 | 3959 ft | 225 kts | 182° |
| 2026-04-30 19:36 | 53.40885 | 9.34378 | 3965 ft | 220 kts | 143° |
| 2026-04-30 19:36 | 53.40043 | 9.38935 | 3996 ft | 223 kts | 83° |
| 2026-04-30 19:37 | 53.40272 | 9.41514 | 3996 ft | 224 kts | 83° |
| 2026-04-30 19:37 | 53.40501 | 9.44096 | 3990 ft | 224 kts | 83° |
| 2026-04-30 19:37 | 53.40728 | 9.46676 | 3988 ft | 224 kts | 83° |
| 2026-04-30 19:37 | 53.40954 | 9.49252 | 3992 ft | 224 kts | 83° |
| 2026-04-30 19:38 | 53.41180 | 9.51833 | 3987 ft | 224 kts | 83° |
| 2026-04-30 19:38 | 53.41472 | 9.54394 | 3981 ft | 225 kts | 71° |
| 2026-04-30 19:38 | 53.42214 | 9.56695 | 3993 ft | 226 kts | 56° |
| 2026-04-30 19:38 | 53.43181 | 9.58788 | 3999 ft | 227 kts | 53° |
| 2026-04-30 19:39 | 53.44187 | 9.60838 | 3996 ft | 228 kts | 52° |
| 2026-04-30 19:39 | 53.45197 | 9.62872 | 3990 ft | 224 kts | 52° |
| 2026-04-30 19:39 | 53.46152 | 9.64794 | 4022 ft | 211 kts | 52° |
| 2026-04-30 19:39 | 53.47059 | 9.66617 | 4009 ft | 197 kts | 52° |
| 2026-04-30 19:40 | 53.47910 | 9.68327 | 3998 ft | 188 kts | 52° |
| 2026-04-30 19:40 | 53.48745 | 9.70005 | 3995 ft | 187 kts | 52° |
| 2026-04-30 19:40 | 53.49583 | 9.71691 | 3789 ft | 188 kts | 52° |
| 2026-04-30 19:40 | 53.50422 | 9.73378 | 3558 ft | 188 kts | 52° |
| 2026-04-30 19:41 | 53.51260 | 9.75064 | 3313 ft | 188 kts | 52° |
| 2026-04-30 19:41 | 53.52095 | 9.76745 | 3071 ft | 187 kts | 52° |
| 2026-04-30 19:41 | 53.52927 | 9.78422 | 2818 ft | 186 kts | 52° |
| 2026-04-30 19:41 | 53.53755 | 9.80091 | 2574 ft | 185 kts | 52° |
| 2026-04-30 19:42 | 53.54578 | 9.81749 | 2337 ft | 185 kts | 52° |
| 2026-04-30 19:42 | 53.55392 | 9.83389 | 2091 ft | 178 kts | 52° |
| 2026-04-30 19:42 | 53.56138 | 9.84892 | 1873 ft | 159 kts | 52° |
| 2026-04-30 19:42 | 53.56804 | 9.86237 | 1662 ft | 141 kts | 52° |
| 2026-04-30 19:43 | 53.57415 | 9.87471 | 1467 ft | 136 kts | 52° |
| 2026-04-30 19:43 | 53.58021 | 9.88695 | 1284 ft | 136 kts | 52° |
| 2026-04-30 19:43 | 53.58626 | 9.89915 | 1107 ft | 135 kts | 52° |
| 2026-04-30 19:44 | 53.59834 | 9.92355 | 743 ft | 136 kts | 51° |
| 2026-04-30 19:44 | 53.60438 | 9.93576 | 557 ft | 135 kts | 51° |
| 2026-04-30 19:44 | 53.61039 | 9.94790 | 378 ft | 135 kts | 52° |
| 2026-04-30 19:44 | 53.61644 | 9.96009 | 204 ft | 135 kts | 51° |
| 2026-04-30 19:45 | 53.62240 | 9.97220 | 55 ft | 131 kts | 51° |
| 2026-04-30 19:45 | 53.62740 | 9.98222 | 45 ft | 91 kts | 51° |
| 2026-04-30 19:45 | 53.63029 | 9.98806 | 48 ft | 35 kts | 51° |
| 2026-04-30 19:45 | 53.63092 | 9.99123 | 49 ft | 15 kts | 92° |
| 2026-04-30 19:46 | 53.63089 | 9.99184 | 49 ft | 0 kts | 94° |
| 2026-04-30 19:46 | 53.63089 | 9.99196 | 49 ft | 3 kts | 94° |
| 2026-04-30 19:46 | 53.63086 | 9.99249 | 49 ft | 6 kts | 94° |
| 2026-04-30 19:47 | 53.63091 | 9.99363 | 49 ft | 15 kts | 72° |
| 2026-04-30 19:47 | 53.63132 | 9.99486 | 49 ft | 21 kts | 53° |
| 2026-04-30 19:47 | 53.63218 | 9.99663 | 51 ft | 0 kts | 50° |
| 2026-04-30 19:47 | 53.63220 | 9.99668 | 51 ft | 0 kts | 50° |
| 2026-04-30 19:48 | 53.63221 | 9.99668 | 51 ft | 1 kts | 50° |
| 2026-04-30 19:48 | 53.63238 | 9.99698 | 51 ft | 7 kts | 44° |
| 2026-04-30 19:48 | 53.63286 | 9.99779 | 51 ft | 12 kts | 49° |
| 2026-04-30 19:48 | 53.63347 | 9.99899 | 51 ft | 15 kts | 51° |
| 2026-04-30 19:49 | 53.63412 | 10.00032 | 51 ft | 11 kts | 50° |
| 2026-04-30 19:49 | 53.63421 | 10.00174 | 48 ft | 7 kts | 114° |
| 2026-04-30 19:49 | 53.63411 | 10.00270 | 51 ft | 7 kts | 86° |
| 2026-04-30 19:50 | 53.63412 | 10.00307 | 51 ft | 2 kts | 86° |
| 2026-04-30 19:50 | 53.63413 | 10.00334 | 51 ft | 2 kts | 86° |
| 2026-04-30 19:50 | 53.63414 | 10.00339 | 51 ft | 0 kts | 85° |